Time;durP1;ratioP1;P1;durP2;ratioP2;P2;SDS_P1;SDS_P2;PMS_P1;PMS_P2;Temp;Humidity;BMP_temperature;BMP_pressure;BME280_temperature;BME280_humidity;BME280_pressure;Samples;Min_cycle;Max_cycle;Signal;HPM_P1;HPM_P2
2024/02/17 00:05:40;;;;;;;5.65;2.75;;;5.50;99.90;;;;;;20535058;28;20552;-41
2024/02/17 00:15:42;;;;;;;4.57;2.30;;;5.50;99.90;;;;;;20534067;28;20187;-40
2024/02/17 00:25:48;;;;;;;5.88;2.90;;;5.50;99.90;;;;;;20531387;28;20188;-41
2024/02/17 00:35:51;;;;;;;6.47;2.50;;;5.50;99.90;;;;;;20535063;28;20155;-41
2024/02/17 00:45:53;;;;;;;4.00;1.60;;;5.50;99.90;;;;;;20532550;28;20176;-41
2024/02/17 00:55:56;;;;;;;7.70;1.90;;;5.50;99.90;;;;;;20526338;28;20148;-41
2024/02/17 01:06:03;;;;;;;3.20;1.90;;;5.50;99.90;;;;;;20514308;28;20136;-42
2024/02/17 01:16:04;;;;;;;2.65;1.30;;;5.50;99.90;;;;;;20526901;28;20144;-41
2024/02/17 01:26:06;;;;;;;4.47;2.10;;;5.50;99.90;;;;;;20527436;28;20124;-43
2024/02/17 01:36:17;;;;;;;4.18;2.10;;;5.30;99.90;;;;;;20538127;28;20260;-41
2024/02/17 01:46:20;;;;;;;4.85;1.70;;;5.30;99.90;;;;;;20540868;28;21195;-42
2024/02/17 01:56:25;;;;;;;5.38;2.28;;;5.40;99.90;;;;;;20541912;28;20102;-41
2024/02/17 02:06:29;;;;;;;5.55;2.13;;;5.40;99.90;;;;;;20539806;28;20123;-41
2024/02/17 02:16:31;;;;;;;5.07;2.13;;;5.50;99.90;;;;;;20537022;28;20706;-41
2024/02/17 02:26:33;;;;;;;4.70;2.30;;;5.30;99.90;;;;;;20504619;28;21456;-41
2024/02/17 02:36:35;;;;;;;3.97;2.20;;;5.30;99.90;;;;;;20541399;28;20470;-40
2024/02/17 02:46:37;;;;;;;6.10;2.60;;;5.10;99.90;;;;;;20537482;28;20144;-40
2024/02/17 02:56:39;;;;;;;5.80;2.33;;;4.90;99.90;;;;;;20540215;28;20255;-43
2024/02/17 03:06:41;;;;;;;4.47;2.42;;;4.80;99.90;;;;;;20538359;28;20149;-41
2024/02/17 03:16:43;;;;;;;4.88;2.10;;;4.50;99.90;;;;;;20526951;28;20207;-40
2024/02/17 03:26:44;;;;;;;5.93;2.70;;;4.30;99.90;;;;;;20527276;28;20911;-41
2024/02/17 03:36:46;;;;;;;8.68;3.58;;;4.20;99.90;;;;;;20522941;28;20184;-41
2024/02/17 03:46:48;;;;;;;9.20;3.75;;;4.00;99.90;;;;;;20522563;28;20567;-41
2024/02/17 03:56:50;;;;;;;5.15;2.30;;;3.70;99.90;;;;;;20522275;28;20183;-42
2024/02/17 04:06:52;;;;;;;4.07;1.80;;;3.50;99.90;;;;;;20523639;28;21194;-42
2024/02/17 04:16:54;;;;;;;3.25;1.63;;;3.50;99.90;;;;;;20522190;28;20617;-41
2024/02/17 04:26:56;;;;;;;4.47;1.58;;;3.40;99.90;;;;;;20502078;28;20156;-40
2024/02/17 04:37:01;;;;;;;2.92;1.60;;;3.30;99.90;;;;;;20522104;28;20175;-41
2024/02/17 04:47:03;;;;;;;4.47;2.13;;;3.50;99.90;;;;;;20516197;28;20175;-41
2024/02/17 04:57:04;;;;;;;5.00;1.83;;;3.50;99.90;;;;;;20518838;28;20763;-40
2024/02/17 05:07:06;;;;;;;3.55;2.03;;;3.30;99.90;;;;;;20519466;28;20180;-41
2024/02/17 05:17:12;;;;;;;3.67;1.80;;;3.30;99.90;;;;;;20527988;28;20042;-40
2024/02/17 05:27:13;;;;;;;5.28;1.95;;;3.30;99.90;;;;;;20531875;28;20175;-42
2024/02/17 05:37:18;;;;;;;4.55;2.10;;;3.40;99.90;;;;;;20525962;28;20450;-41
2024/02/17 05:47:20;;;;;;;6.07;2.70;;;3.20;99.90;;;;;;20527277;28;20187;-40
2024/02/17 05:57:21;;;;;;;5.75;2.20;;;3.10;99.90;;;;;;20529489;28;20163;-41
2024/02/17 06:07:26;;;;;;;5.78;2.33;;;3.10;99.90;;;;;;20526501;28;20114;-40
2024/02/17 06:17:28;;;;;;;4.90;1.73;;;3.10;99.90;;;;;;20531688;28;20168;-40
2024/02/17 06:27:30;;;;;;;3.47;1.25;;;3.10;99.90;;;;;;20526383;28;20144;-42
2024/02/17 06:37:32;;;;;;;4.97;2.35;;;3.50;99.90;;;;;;20526968;28;20140;-41
2024/02/17 06:47:33;;;;;;;2.95;1.35;;;3.80;99.90;;;;;;20527374;28;20566;-41
2024/02/17 06:57:37;;;;;;;4.03;1.40;;;4.00;99.90;;;;;;20520021;28;20125;-41
2024/02/17 07:07:41;;;;;;;7.75;2.72;;;4.20;99.90;;;;;;20522700;28;20158;-41
2024/02/17 07:17:47;;;;;;;5.35;2.45;;;4.70;99.90;;;;;;20524984;28;20176;-42
2024/02/17 07:27:50;;;;;;;5.55;2.63;;;5.10;99.90;;;;;;20521292;28;21311;-41
2024/02/17 07:37:52;;;;;;;6.30;3.25;;;5.40;99.90;;;;;;20520647;28;20128;-41
2024/02/17 07:47:54;;;;;;;7.00;3.55;;;5.70;99.90;;;;;;20521441;28;21594;-41
2024/02/17 07:57:55;;;;;;;9.70;4.72;;;6.40;99.90;;;;;;20522390;28;21236;-41
2024/02/17 08:07:57;;;;;;;6.72;3.50;;;7.40;99.90;;;;;;20514933;28;20183;-44
2024/02/17 08:17:59;;;;;;;8.18;3.85;;;8.20;99.90;;;;;;20521845;28;20267;-42
2024/02/17 08:28:01;;;;;;;6.30;3.45;;;8.60;99.90;;;;;;20514510;28;20195;-42
2024/02/17 08:38:04;;;;;;;6.65;3.40;;;9.40;99.90;;;;;;20517761;28;21394;-43
2024/02/17 08:48:06;;;;;;;8.75;3.38;;;10.10;99.90;;;;;;20532537;28;20141;-42
2024/02/17 08:58:08;;;;;;;6.80;3.38;;;10.30;99.90;;;;;;20533852;28;20176;-42
2024/02/17 09:08:09;;;;;;;7.20;3.60;;;10.20;99.90;;;;;;20532077;28;20178;-43
2024/02/17 09:18:11;;;;;;;5.15;3.80;;;10.60;99.90;;;;;;20530471;28;20073;-42
2024/02/17 09:28:13;;;;;;;5.53;3.15;;;10.60;99.80;;;;;;20531046;28;20104;-42
2024/02/17 09:38:15;;;;;;;6.75;3.10;;;11.10;98.90;;;;;;20526694;28;20155;-42
2024/02/17 09:48:17;;;;;;;5.20;2.65;;;11.60;98.10;;;;;;20527501;28;20519;-43
2024/02/17 09:58:19;;;;;;;5.82;3.00;;;11.80;97.10;;;;;;20525447;28;20171;-42
2024/02/17 10:08:24;;;;;;;4.18;2.15;;;12.00;97.40;;;;;;20529117;28;20182;-42
2024/02/17 10:18:25;;;;;;;5.88;2.40;;;12.50;97.40;;;;;;20528706;28;20172;-43
2024/02/17 10:28:28;;;;;;;7.28;3.38;;;14.00;94.40;;;;;;20522527;28;20263;-44
2024/02/17 10:38:30;;;;;;;5.03;3.20;;;14.40;95.40;;;;;;20482632;28;20124;-43
2024/02/17 10:48:35;;;;;;;5.93;3.40;;;14.60;93.10;;;;;;20500954;28;20956;-42
2024/02/17 10:58:40;;;;;;;12.27;3.60;;;14.60;92.20;;;;;;20520274;28;20211;-41
2024/02/17 11:08:43;;;;;;;6.15;3.50;;;14.80;91.80;;;;;;20502323;28;20179;-44
2024/02/17 11:18:56;;;;;;;7.60;4.35;;;15.10;91.90;;;;;;20524063;28;20251;-42
2024/02/17 11:28:58;;;;;;;9.07;5.05;;;15.30;91.40;;;;;;20524261;28;20182;-42
2024/02/17 11:39:00;;;;;;;10.43;5.18;;;15.60;91.30;;;;;;20519028;28;20577;-41
2024/02/17 11:49:10;;;;;;;12.32;6.50;;;15.60;90.50;;;;;;20517931;28;21199;-42
2024/02/17 11:59:12;;;;;;;14.43;7.53;;;15.30;91.40;;;;;;20521904;28;20033;-41
2024/02/17 12:09:17;;;;;;;14.43;8.50;;;15.60;91.30;;;;;;20520952;28;20782;-41
2024/02/17 12:19:27;;;;;;;15.45;7.63;;;15.40;91.70;;;;;;20500253;28;20179;-44
2024/02/17 12:29:30;;;;;;;15.35;7.90;;;15.60;93.00;;;;;;20517975;28;20194;-43
2024/02/17 12:39:34;;;;;;;13.50;7.95;;;15.60;92.90;;;;;;20516801;28;21670;-41
2024/02/17 12:49:36;;;;;;;15.45;9.25;;;15.80;92.50;;;;;;20514405;28;20077;-41
2024/02/17 12:59:40;;;;;;;16.08;9.27;;;15.80;91.80;;;;;;20516121;28;20313;-44
2024/02/17 13:09:42;;;;;;;18.23;10.85;;;15.90;92.70;;;;;;20520447;28;20163;-42
2024/02/17 13:19:44;;;;;;;19.63;11.52;;;15.80;91.90;;;;;;20518541;28;20271;-43
2024/02/17 13:29:46;;;;;;;22.27;12.50;;;15.60;92.30;;;;;;20526029;28;20128;-43
2024/02/17 13:39:48;;;;;;;25.67;15.48;;;15.20;93.00;;;;;;20531292;28;20160;-42
2024/02/17 13:49:50;;;;;;;28.95;18.08;;;15.10;92.80;;;;;;20531735;28;20085;-42
2024/02/17 13:59:52;;;;;;;29.65;20.33;;;14.60;93.90;;;;;;20528581;28;20128;-42
2024/02/17 14:09:55;;;;;;;32.58;20.63;;;13.70;95.70;;;;;;20527415;28;20540;-41
2024/02/17 14:19:57;;;;;;;39.60;24.30;;;13.00;96.60;;;;;;20531494;28;20168;-41
2024/02/17 14:29:59;;;;;;;45.83;27.13;;;12.60;98.00;;;;;;20530750;28;20115;-41
2024/02/17 14:40:00;;;;;;;45.65;27.33;;;11.90;98.50;;;;;;20524145;28;21202;-40
2024/02/17 14:50:02;;;;;;;44.00;28.75;;;11.70;99.90;;;;;;20519632;28;20107;-44
2024/02/17 15:00:09;;;;;;;46.33;29.92;;;11.70;99.90;;;;;;20522415;28;20087;-40
2024/02/17 15:10:11;;;;;;;48.17;30.15;;;11.40;99.90;;;;;;20526673;28;21649;-40
2024/02/17 15:20:13;;;;;;;48.47;29.95;;;11.10;99.90;;;;;;20526248;28;20119;-40
2024/02/17 15:30:15;;;;;;;56.28;32.20;;;10.80;99.90;;;;;;20522757;28;20068;-41
2024/02/17 15:40:17;;;;;;;52.90;31.45;;;10.50;99.90;;;;;;20520112;28;21651;-41
2024/02/17 15:50:20;;;;;;;47.80;29.27;;;10.10;99.90;;;;;;20523416;28;20251;-40
2024/02/17 16:00:22;;;;;;;19.90;11.38;;;9.40;99.90;;;;;;20522850;28;20546;-43
2024/02/17 16:10:26;;;;;;;2.85;1.30;;;8.90;99.90;;;;;;20519251;28;20111;-40
2024/02/17 16:20:28;;;;;;;1.98;1.15;;;8.80;99.50;;;;;;20520726;28;20148;-40
2024/02/17 16:30:33;;;;;;;1.80;0.90;;;8.80;99.10;;;;;;20519214;28;20076;-40
2024/02/17 16:40:35;;;;;;;1.77;0.90;;;8.60;99.60;;;;;;20521566;28;20164;-40
2024/02/17 16:50:36;;;;;;;2.90;1.80;;;8.30;99.90;;;;;;20519521;28;20168;-41
2024/02/17 17:00:38;;;;;;;12.70;9.38;;;7.90;99.90;;;;;;20503313;28;20462;-41
2024/02/17 17:10:45;;;;;;;1.50;0.77;;;7.60;99.90;;;;;;20535585;28;20121;-40
2024/02/17 17:20:50;;;;;;;2.55;0.90;;;7.50;98.90;;;;;;20533910;28;20136;-40
2024/02/17 17:30:52;;;;;;;3.75;2.38;;;7.30;99.40;;;;;;20533940;28;21130;-40
2024/02/17 17:40:54;;;;;;;3.03;1.55;;;7.20;99.10;;;;;;20515502;28;20570;-41
2024/02/17 17:50:55;;;;;;;5.05;2.78;;;7.10;99.10;;;;;;20531717;28;20179;-40
2024/02/17 18:00:57;;;;;;;3.42;2.00;;;7.10;98.70;;;;;;20513023;28;20048;-40
2024/02/17 18:11:02;;;;;;;7.50;3.30;;;6.80;99.40;;;;;;20528837;28;20238;-41
2024/02/17 18:21:07;;;;;;;11.40;9.23;;;6.90;99.10;;;;;;20530864;28;20128;-40
2024/02/17 18:31:09;;;;;;;2.88;1.50;;;6.90;98.90;;;;;;20530870;28;20136;-40
2024/02/17 18:41:13;;;;;;;5.28;2.65;;;6.80;98.80;;;;;;20531258;28;20133;-40
2024/02/17 18:51:19;;;;;;;2.80;2.00;;;6.80;99.20;;;;;;20526506;28;20180;-42
2024/02/17 19:01:23;;;;;;;7.70;5.20;;;6.80;99.30;;;;;;20528786;28;20168;-41
2024/02/17 19:11:25;;;;;;;4.05;0.40;;;6.90;99.00;;;;;;20525214;28;20037;-43
2024/02/17 19:21:27;;;;;;;4.45;2.70;;;6.90;98.80;;;;;;20523922;28;21185;-43
2024/02/17 19:31:28;;;;;;;2.53;1.38;;;7.20;98.50;;;;;;20527133;28;20679;-41
2024/02/17 19:41:31;;;;;;;1.92;0.50;;;7.40;98.10;;;;;;20524464;28;20132;-41
2024/02/17 19:51:33;;;;;;;9.43;5.10;;;7.50;98.80;;;;;;20522105;28;20842;-42
2024/02/17 20:01:34;;;;;;;5.80;3.20;;;7.60;99.00;;;;;;20524354;28;20167;-41
2024/02/17 20:11:36;;;;;;;6.82;3.38;;;7.50;98.80;;;;;;20520043;28;20571;-41
2024/02/17 20:21:40;;;;;;;6.63;2.42;;;7.60;98.90;;;;;;20521290;28;20128;-43
2024/02/17 20:31:42;;;;;;;4.07;1.88;;;8.00;98.40;;;;;;20519569;28;20179;-41
2024/02/17 20:41:50;;;;;;;0.73;0.30;;;7.90;98.00;;;;;;20538147;28;20171;-42
2024/02/17 20:51:52;;;;;;;0.28;0.20;;;7.50;98.30;;;;;;20537179;28;20153;-41
2024/02/17 21:01:54;;;;;;;10.52;3.92;;;7.20;98.50;;;;;;20536207;28;20049;-42
2024/02/17 21:11:56;;;;;;;5.45;1.50;;;6.80;99.50;;;;;;20533790;28;20033;-42
2024/02/17 21:21:58;;;;;;;3.90;0.40;;;6.70;98.90;;;;;;20536077;28;20215;-42
2024/02/17 21:32:03;;;;;;;0.85;0.20;;;6.70;98.80;;;;;;20533221;28;21347;-42
2024/02/17 21:42:06;;;;;;;1.00;0.30;;;6.60;98.60;;;;;;20531816;28;20699;-41
2024/02/17 21:52:08;;;;;;;0.47;0.30;;;6.50;98.30;;;;;;20527845;28;20399;-41
2024/02/17 22:02:10;;;;;;;0.28;0.10;;;6.30;98.10;;;;;;20511875;28;20163;-45
2024/02/17 22:12:12;;;;;;;0.60;0.20;;;5.90;97.80;;;;;;20529125;28;20694;-45
2024/02/17 22:22:14;;;;;;;0.60;0.20;;;5.60;97.70;;;;;;20529157;28;20248;-41
2024/02/17 22:32:16;;;;;;;1.25;0.20;;;5.60;97.40;;;;;;20531209;28;20251;-41
2024/02/17 22:42:21;;;;;;;0.40;0.20;;;5.80;97.70;;;;;;20528710;28;20160;-43
2024/02/17 22:52:23;;;;;;;0.52;0.20;;;6.00;98.10;;;;;;20526128;28;20453;-41
2024/02/17 23:02:27;;;;;;;3.60;0.40;;;6.20;98.20;;;;;;20528097;28;20795;-41
2024/02/17 23:12:30;;;;;;;1.95;0.25;;;6.30;98.60;;;;;;20524130;28;20139;-42
2024/02/17 23:22:32;;;;;;;2.50;0.30;;;6.40;99.40;;;;;;20522056;28;21199;-43
2024/02/17 23:32:36;;;;;;;1.70;0.30;;;6.40;99.90;;;;;;20525802;28;20729;-41
2024/02/17 23:42:38;;;;;;;0.70;0.22;;;6.30;99.90;;;;;;20524728;28;21141;-43
2024/02/17 23:52:40;;;;;;;2.25;0.32;;;6.10;99.90;;;;;;20521856;28;20152;-41
